createdAt,value
2016-11-13T00:00:12.608Z,1026.57
2016-11-13T00:01:22.629Z,1026.56
2016-11-13T00:02:32.389Z,1026.59
2016-11-13T00:03:42.806Z,1026.55
2016-11-13T00:04:52.540Z,1026.58
2016-11-13T00:06:02.558Z,1026.62
2016-11-13T00:07:11.957Z,1026.6
2016-11-13T00:08:21.730Z,1026.57
2016-11-13T00:09:31.112Z,1026.55
2016-11-13T00:10:41.300Z,1026.58
2016-11-13T00:11:51.649Z,1026.61
2016-11-13T00:13:01.780Z,1026.64
2016-11-13T00:14:11.798Z,1026.65
2016-11-13T00:15:22.163Z,1026.68
2016-11-13T00:16:31.875Z,1026.66
2016-11-13T00:17:41.896Z,1026.67
2016-11-13T00:18:52.289Z,1026.67
2016-11-13T00:20:02.641Z,1026.63
2016-11-13T00:21:12.371Z,1026.66
2016-11-13T00:22:22.397Z,1026.65
2016-11-13T00:23:31.795Z,1026.63
2016-11-13T00:24:41.630Z,1026.64
2016-11-13T00:25:51.020Z,1026.6
2016-11-13T00:27:01.035Z,1026.62
2016-11-13T00:28:11.372Z,1026.58
2016-11-13T00:29:21.391Z,1026.59
2016-11-13T00:30:31.526Z,1026.58
2016-11-13T00:31:40.924Z,1026.58
2016-11-13T00:32:50.942Z,1026.53
2016-11-13T00:34:00.334Z,1026.52
2016-11-13T00:35:10.038Z,1026.48
2016-11-13T00:36:20.200Z,1026.49
2016-11-13T00:37:29.600Z,1026.49
2016-11-13T00:38:39.952Z,1026.49
2016-11-13T00:39:49.669Z,1026.47
2016-11-13T00:40:59.391Z,1026.48
2016-11-13T00:42:09.440Z,1026.47
2016-11-13T00:43:19.467Z,1026.48
2016-11-13T00:44:29.465Z,1026.5
2016-11-13T00:45:39.241Z,1026.52
2016-11-13T00:46:48.965Z,1026.49
2016-11-13T00:47:58.981Z,1026.53
2016-11-13T00:49:09.018Z,1026.47
2016-11-13T00:50:18.736Z,1026.47
2016-11-13T00:51:27.622Z,1026.43
2016-11-13T00:52:37.969Z,1026.42
2016-11-13T00:53:47.692Z,1026.42
2016-11-13T00:54:58.021Z,1026.36
2016-11-13T00:56:07.129Z,1026.35
2016-11-13T00:57:16.886Z,1026.38
2016-11-13T00:58:27.211Z,1026.43
2016-11-13T00:59:37.009Z,1026.37
2016-11-13T01:00:46.778Z,1026.42
2016-11-13T01:01:56.800Z,1026.45
2016-11-13T01:03:06.518Z,1026.39
2016-11-13T01:04:16.224Z,1026.42
2016-11-13T01:05:26.298Z,1026.42
2016-11-13T01:06:35.705Z,1026.43
2016-11-13T01:07:46.038Z,1026.41
2016-11-13T01:08:56.379Z,1026.37
2016-11-13T01:10:06.965Z,1026.39
2016-11-13T01:11:16.402Z,1026.42
2016-11-13T01:12:26.898Z,1026.37
2016-11-13T01:13:37.016Z,1026.39
2016-11-13T01:14:47.399Z,1026.34
2016-11-13T01:15:56.819Z,1026.36
2016-11-13T01:17:06.949Z,1026.34
2016-11-13T01:18:17.294Z,1026.34
2016-11-13T01:19:27.403Z,1026.36
2016-11-13T01:20:37.099Z,1026.39
2016-11-13T01:21:47.136Z,1026.37
2016-11-13T01:22:56.867Z,1026.4
2016-11-13T01:24:06.944Z,1026.41
2016-11-13T01:25:17.285Z,1026.42
2016-11-13T01:26:26.996Z,1026.47
2016-11-13T01:27:37.053Z,1026.45
2016-11-13T01:28:46.760Z,1026.47
2016-11-13T01:29:56.784Z,1026.48
2016-11-13T01:31:06.501Z,1026.43
2016-11-13T01:32:16.834Z,1026.42
2016-11-13T01:33:26.594Z,1026.38
2016-11-13T01:34:36.716Z,1026.38
2016-11-13T01:35:46.730Z,1026.38
2016-11-13T01:36:56.445Z,1026.38
2016-11-13T01:38:06.172Z,1026.37
2016-11-13T01:39:16.230Z,1026.4
2016-11-13T01:40:25.998Z,1026.37
2016-11-13T01:41:35.699Z,1026.4
2016-11-13T01:42:45.709Z,1026.39
2016-11-13T01:43:55.722Z,1026.38
2016-11-13T01:45:06.170Z,1026.35
2016-11-13T01:46:16.266Z,1026.34
2016-11-13T01:47:26.068Z,1026.35
2016-11-13T01:48:35.152Z,1026.3
2016-11-13T01:49:45.183Z,1026.35
2016-11-13T01:50:55.518Z,1026.35
2016-11-13T01:52:05.849Z,1026.39
2016-11-13T01:53:15.237Z,1026.39
2016-11-13T01:54:25.567Z,1026.39
2016-11-13T01:55:35.888Z,1026.37
2016-11-13T01:56:45.293Z,1026.41
2016-11-13T01:57:55.317Z,1026.42
2016-11-13T01:59:05.023Z,1026.42
2016-11-13T02:00:15.079Z,1026.42
2016-11-13T02:01:25.104Z,1026.4
2016-11-13T02:02:35.263Z,1026.41
2016-11-13T02:03:45.320Z,1026.44
2016-11-13T02:04:54.717Z,1026.43
2016-11-13T02:06:03.810Z,1026.42
2016-11-13T02:07:13.829Z,1026.44
2016-11-13T02:08:23.226Z,1026.42
2016-11-13T02:09:33.238Z,1026.48
2016-11-13T02:10:42.636Z,1026.46
2016-11-13T02:11:52.660Z,1026.47
2016-11-13T02:13:02.996Z,1026.37
2016-11-13T02:14:12.090Z,1026.4
2016-11-13T02:15:22.226Z,1026.39
2016-11-13T02:16:32.580Z,1026.35
2016-11-13T02:17:42.322Z,1026.34
2016-11-13T02:18:52.649Z,1026.32
2016-11-13T02:20:02.415Z,1026.32
2016-11-13T02:21:11.565Z,1026.32
2016-11-13T02:22:21.589Z,1026.3
2016-11-13T02:23:31.912Z,1026.31
2016-11-13T02:24:41.639Z,1026.31
2016-11-13T02:25:51.421Z,1026.33
2016-11-13T02:27:01.748Z,1026.27
2016-11-13T02:28:11.756Z,1026.25
2016-11-13T02:29:21.447Z,1026.28
2016-11-13T02:30:31.500Z,1026.3
2016-11-13T02:31:41.338Z,1026.34
2016-11-13T02:32:51.059Z,1026.33
2016-11-13T02:34:01.087Z,1026.33
2016-11-13T02:35:10.472Z,1026.41
2016-11-13T02:36:20.184Z,1026.36
2016-11-13T02:37:30.567Z,1026.41
2016-11-13T02:38:40.256Z,1026.37
2016-11-13T02:39:50.405Z,1026.38
2016-11-13T02:40:59.850Z,1026.38
2016-11-13T02:42:09.544Z,1026.43
2016-11-13T02:43:19.550Z,1026.39
2016-11-13T02:44:29.660Z,1026.44
2016-11-13T02:45:39.714Z,1026.46
2016-11-13T02:46:49.736Z,1026.48
2016-11-13T02:47:59.458Z,1026.5
2016-11-13T02:49:08.908Z,1026.5
2016-11-13T02:50:18.700Z,1026.49
2016-11-13T02:51:28.402Z,1026.53
2016-11-13T02:52:38.461Z,1026.52
2016-11-13T02:53:48.229Z,1026.59
2016-11-13T02:54:57.687Z,1026.57
2016-11-13T02:56:07.442Z,1026.58
2016-11-13T02:57:17.505Z,1026.58
2016-11-13T02:58:27.658Z,1026.58
2016-11-13T02:59:37.707Z,1026.59
2016-11-13T03:00:47.847Z,1026.62
2016-11-13T03:01:58.159Z,1026.6
2016-11-13T03:03:08.194Z,1026.64
2016-11-13T03:04:17.888Z,1026.63
2016-11-13T03:05:27.711Z,1026.64
2016-11-13T03:06:37.749Z,1026.66
2016-11-13T03:07:47.495Z,1026.65
2016-11-13T03:08:57.838Z,1026.65
2016-11-13T03:10:07.884Z,1026.62
2016-11-13T03:11:17.277Z,1026.57
2016-11-13T03:12:26.978Z,1026.56
2016-11-13T03:13:36.677Z,1026.57
2016-11-13T03:14:46.066Z,1026.59
2016-11-13T03:15:55.751Z,1026.62
2016-11-13T03:17:05.765Z,1026.65
2016-11-13T03:18:16.147Z,1026.64
2016-11-13T03:19:26.456Z,1026.66
2016-11-13T03:20:36.789Z,1026.67
2016-11-13T03:21:45.868Z,1026.67
2016-11-13T03:22:55.589Z,1026.62
2016-11-13T03:24:04.976Z,1026.62
2016-11-13T03:25:14.990Z,1026.64
2016-11-13T03:26:24.404Z,1026.63
2016-11-13T03:27:34.440Z,1026.64
2016-11-13T03:28:44.776Z,1026.66
2016-11-13T03:29:55.080Z,1026.73
2016-11-13T03:31:04.796Z,1026.71
2016-11-13T03:32:14.492Z,1026.71
2016-11-13T03:33:24.815Z,1026.74
2016-11-13T03:34:33.888Z,1026.74
2016-11-13T03:35:44.207Z,1026.69
2016-11-13T03:36:53.601Z,1026.73
2016-11-13T03:38:04.010Z,1026.69
2016-11-13T03:39:13.712Z,1026.68
2016-11-13T03:40:23.441Z,1026.66
2016-11-13T03:41:32.826Z,1026.62
2016-11-13T03:42:42.548Z,1026.65
2016-11-13T03:43:52.872Z,1026.63
2016-11-13T03:45:03.194Z,1026.62
2016-11-13T03:46:12.878Z,1026.61
2016-11-13T03:47:22.285Z,1026.58
2016-11-13T03:48:31.985Z,1026.54
2016-11-13T03:49:42.326Z,1026.57
2016-11-13T03:50:52.348Z,1026.57
2016-11-13T03:52:02.417Z,1026.6
2016-11-13T03:53:11.887Z,1026.6
2016-11-13T03:54:22.388Z,1026.61
2016-11-13T03:55:32.722Z,1026.58
2016-11-13T03:56:42.785Z,1026.62
2016-11-13T03:57:52.199Z,1026.64
2016-11-13T03:59:01.907Z,1026.63
2016-11-13T04:00:11.636Z,1026.64
2016-11-13T04:01:21.355Z,1026.62
2016-11-13T04:02:31.826Z,1026.64
2016-11-13T04:03:41.235Z,1026.6
2016-11-13T04:04:51.255Z,1026.6
2016-11-13T04:06:01.008Z,1026.63
2016-11-13T04:07:10.391Z,1026.6
2016-11-13T04:08:20.136Z,1026.59
2016-11-13T04:09:30.139Z,1026.58
2016-11-13T04:10:40.228Z,1026.59
2016-11-13T04:11:49.676Z,1026.57
2016-11-13T04:12:59.696Z,1026.58
2016-11-13T04:14:10.155Z,1026.56
2016-11-13T04:15:20.175Z,1026.6
2016-11-13T04:16:30.187Z,1026.55
2016-11-13T04:17:39.943Z,1026.57
2016-11-13T04:18:49.988Z,1026.53
2016-11-13T04:19:59.981Z,1026.51
2016-11-13T04:21:09.665Z,1026.52
2016-11-13T04:22:19.431Z,1026.49
2016-11-13T04:23:29.764Z,1026.51
2016-11-13T04:24:39.783Z,1026.52
2016-11-13T04:25:49.801Z,1026.54
2016-11-13T04:26:59.852Z,1026.52
2016-11-13T04:28:10.174Z,1026.59
2016-11-13T04:29:19.858Z,1026.57
2016-11-13T04:30:29.577Z,1026.58
2016-11-13T04:31:39.278Z,1026.6
2016-11-13T04:32:49.320Z,1026.64
2016-11-13T04:33:59.675Z,1026.61
2016-11-13T04:35:08.780Z,1026.62
2016-11-13T04:36:18.484Z,1026.62
2016-11-13T04:37:28.887Z,1026.57
2016-11-13T04:38:39.227Z,1026.56
2016-11-13T04:39:48.971Z,1026.58
2016-11-13T04:40:58.401Z,1026.55
2016-11-13T04:42:08.114Z,1026.52
2016-11-13T04:43:17.816Z,1026.47
2016-11-13T04:44:27.957Z,1026.43
2016-11-13T04:45:37.656Z,1026.45
2016-11-13T04:46:47.158Z,1026.45
2016-11-13T04:47:57.208Z,1026.42
2016-11-13T04:49:06.625Z,1026.4
2016-11-13T04:50:16.012Z,1026.37
2016-11-13T04:51:25.155Z,1026.38
2016-11-13T04:52:34.868Z,1026.4
2016-11-13T04:53:44.905Z,1026.41
2016-11-13T04:54:54.931Z,1026.38
2016-11-13T04:56:04.686Z,1026.37
2016-11-13T04:57:14.069Z,1026.38
2016-11-13T04:58:24.164Z,1026.35
2016-11-13T04:59:34.499Z,1026.39
2016-11-13T05:00:44.208Z,1026.4
2016-11-13T05:01:54.386Z,1026.41
2016-11-13T05:03:03.790Z,1026.48
2016-11-13T05:04:13.797Z,1026.45
2016-11-13T05:05:23.496Z,1026.54
2016-11-13T05:06:32.597Z,1026.57
2016-11-13T05:07:42.331Z,1026.63
2016-11-13T05:08:52.344Z,1026.67
2016-11-13T05:10:02.690Z,1026.68
2016-11-13T05:11:12.936Z,1026.74
2016-11-13T05:12:22.640Z,1026.82
2016-11-13T05:13:32.717Z,1026.79
2016-11-13T05:14:43.188Z,1026.82
2016-11-13T05:15:53.188Z,1026.84
2016-11-13T05:17:02.932Z,1026.86
2016-11-13T05:18:13.057Z,1026.81
2016-11-13T05:19:22.734Z,1026.83
2016-11-13T05:20:33.047Z,1026.83
2016-11-13T05:21:43.096Z,1026.85
2016-11-13T05:22:52.797Z,1026.85
2016-11-13T05:24:03.118Z,1026.85
2016-11-13T05:25:12.828Z,1026.88
2016-11-13T05:26:22.597Z,1026.85
2016-11-13T05:27:32.619Z,1026.85
2016-11-13T05:28:42.447Z,1026.83
2016-11-13T05:29:52.216Z,1026.79
2016-11-13T05:31:01.605Z,1026.82
2016-11-13T05:32:11.607Z,1026.82
2016-11-13T05:33:21.413Z,1026.79
2016-11-13T05:34:31.737Z,1026.85
2016-11-13T05:35:41.431Z,1026.83
2016-11-13T05:36:51.428Z,1026.81
2016-11-13T05:38:01.320Z,1026.8
2016-11-13T05:39:11.429Z,1026.78
2016-11-13T05:40:21.426Z,1026.85
2016-11-13T05:41:31.743Z,1026.84
2016-11-13T05:42:41.190Z,1026.9
2016-11-13T05:43:50.580Z,1026.92
2016-11-13T05:45:00.364Z,1026.96
2016-11-13T05:46:10.060Z,1026.99
2016-11-13T05:47:19.901Z,1027
2016-11-13T05:48:29.876Z,1026.93
2016-11-13T05:49:39.942Z,1026.99
2016-11-13T05:50:49.348Z,1026.9
2016-11-13T05:51:59.054Z,1026.83
2016-11-13T05:53:09.111Z,1026.88
2016-11-13T05:54:18.566Z,1026.88
2016-11-13T05:55:28.759Z,1026.87
2016-11-13T05:56:38.468Z,1026.89
2016-11-13T05:57:47.247Z,1026.95
2016-11-13T05:58:57.909Z,1026.93
2016-11-13T06:00:08.183Z,1026.91
2016-11-13T06:01:17.257Z,1026.95
2016-11-13T06:02:27.007Z,1026.99
2016-11-13T06:03:37.008Z,1026.97
2016-11-13T06:04:47.017Z,1026.95
2016-11-13T06:05:57.118Z,1026.96
2016-11-13T06:07:07.130Z,1026.98
2016-11-13T06:08:16.828Z,1027
2016-11-13T06:09:26.552Z,1027.04
2016-11-13T06:10:36.599Z,1027.05
2016-11-13T06:11:46.281Z,1027.07
2016-11-13T06:12:55.998Z,1027.12
2016-11-13T06:14:06.336Z,1027.14
2016-11-13T06:15:16.069Z,1027.16
2016-11-13T06:16:25.191Z,1027.18
2016-11-13T06:17:34.832Z,1027.24
2016-11-13T06:18:44.638Z,1027.26
2016-11-13T06:19:54.639Z,1027.24
2016-11-13T06:21:04.638Z,1027.28
2016-11-13T06:22:14.329Z,1027.27
2016-11-13T06:23:24.337Z,1027.24
2016-11-13T06:24:34.073Z,1027.23
2016-11-13T06:25:44.091Z,1027.22
2016-11-13T06:26:54.008Z,1027.2
2016-11-13T06:28:03.768Z,1027.25
2016-11-13T06:29:13.793Z,1027.22
2016-11-13T06:30:23.576Z,1027.27
2016-11-13T06:31:33.281Z,1027.26
2016-11-13T06:32:43.329Z,1027.29
2016-11-13T06:33:53.649Z,1027.28
2016-11-13T06:35:02.824Z,1027.3
2016-11-13T06:36:12.305Z,1027.29
2016-11-13T06:37:22.313Z,1027.33
2016-11-13T06:38:32.158Z,1027.34
2016-11-13T06:39:41.569Z,1027.3
2016-11-13T06:40:51.585Z,1027.3
2016-11-13T06:42:01.920Z,1027.32
2016-11-13T06:43:12.244Z,1027.36
2016-11-13T06:44:22.558Z,1027.39
2016-11-13T06:45:32.877Z,1027.38
2016-11-13T06:46:41.989Z,1027.41
2016-11-13T06:47:52.054Z,1027.43
2016-11-13T06:49:01.808Z,1027.44
2016-11-13T06:50:11.261Z,1027.47
2016-11-13T06:51:21.059Z,1027.53
2016-11-13T06:52:31.072Z,1027.53
2016-11-13T06:53:40.787Z,1027.57
2016-11-13T06:54:50.472Z,1027.62
2016-11-13T06:56:00.472Z,1027.62
2016-11-13T06:57:10.453Z,1027.63
2016-11-13T06:58:20.461Z,1027.64
2016-11-13T06:59:29.888Z,1027.71
2016-11-13T07:00:39.896Z,1027.67
2016-11-13T07:01:49.957Z,1027.63
2016-11-13T07:02:59.691Z,1027.64
2016-11-13T07:04:09.704Z,1027.65
2016-11-13T07:05:20.019Z,1027.68
2016-11-13T07:06:29.728Z,1027.66
2016-11-13T07:07:39.793Z,1027.67
2016-11-13T07:08:49.801Z,1027.6
2016-11-13T07:09:59.328Z,1027.57
2016-11-13T07:11:09.339Z,1027.51
2016-11-13T07:12:19.666Z,1027.53
2016-11-13T07:13:29.801Z,1027.54
2016-11-13T07:14:39.555Z,1027.52
2016-11-13T07:15:48.957Z,1027.59
2016-11-13T07:16:58.978Z,1027.57
2016-11-13T07:18:08.689Z,1027.6
2016-11-13T07:19:18.406Z,1027.61
2016-11-13T07:20:28.486Z,1027.66
2016-11-13T07:21:38.502Z,1027.61
2016-11-13T07:22:48.979Z,1027.67
2016-11-13T07:23:58.674Z,1027.73
2016-11-13T07:25:08.388Z,1027.79
2016-11-13T07:26:18.088Z,1027.8
2016-11-13T07:27:28.198Z,1027.75
2016-11-13T07:28:37.924Z,1027.81
2016-11-13T07:29:47.417Z,1027.81
2016-11-13T07:30:57.267Z,1027.8
2016-11-13T07:32:06.982Z,1027.87
2016-11-13T07:33:16.706Z,1027.87
2016-11-13T07:34:26.417Z,1027.89
2016-11-13T07:35:36.765Z,1027.9
2016-11-13T07:36:46.469Z,1027.88
2016-11-13T07:37:56.500Z,1027.89
2016-11-13T07:39:06.957Z,1027.87
2016-11-13T07:40:17.309Z,1027.88
2016-11-13T07:41:27.337Z,1027.87
2016-11-13T07:42:37.674Z,1027.82
2016-11-13T07:43:47.367Z,1027.86
2016-11-13T07:44:57.387Z,1027.82
2016-11-13T07:46:07.238Z,1027.82
2016-11-13T07:47:17.251Z,1027.85
2016-11-13T07:48:27.628Z,1027.81
2016-11-13T07:49:37.947Z,1027.86
2016-11-13T07:50:48.429Z,1027.84
2016-11-13T07:51:58.829Z,1027.9
2016-11-13T07:53:08.507Z,1027.91
2016-11-13T07:54:18.519Z,1027.95
2016-11-13T07:55:28.544Z,1027.94
2016-11-13T07:56:38.558Z,1027.96
2016-11-13T07:57:48.940Z,1028.04
2016-11-13T07:58:59.068Z,1028.06
2016-11-13T08:00:08.788Z,1028.06
2016-11-13T08:01:18.506Z,1028.11
2016-11-13T08:02:28.899Z,1028.09
2016-11-13T08:03:38.368Z,1028.11
2016-11-13T08:04:48.537Z,1028.11
2016-11-13T08:05:58.991Z,1028.13
2016-11-13T08:07:09.525Z,1028.1
2016-11-13T08:08:19.511Z,1028.1
2016-11-13T08:09:29.874Z,1028.11
2016-11-13T08:10:39.871Z,1028.09
2016-11-13T08:11:49.599Z,1028.12
2016-11-13T08:12:58.858Z,1028.17
2016-11-13T08:14:09.196Z,1028.2
2016-11-13T08:15:19.550Z,1028.24
2016-11-13T08:16:29.575Z,1028.22
2016-11-13T08:17:39.684Z,1028.26
2016-11-13T08:18:49.706Z,1028.23
2016-11-13T08:19:59.830Z,1028.28
2016-11-13T08:21:09.887Z,1028.28
2016-11-13T08:22:19.999Z,1028.25
2016-11-13T08:23:30.039Z,1028.29
2016-11-13T08:24:40.858Z,1028.3
2016-11-13T08:25:50.808Z,1028.27
2016-11-13T08:27:00.863Z,1028.26
2016-11-13T08:28:10.833Z,1028.23
2016-11-13T08:29:21.333Z,1028.24
2016-11-13T08:30:31.378Z,1028.23
2016-11-13T08:31:41.523Z,1028.18
2016-11-13T08:32:51.252Z,1028.23
2016-11-13T08:34:01.279Z,1028.27
2016-11-13T08:35:10.829Z,1028.21
2016-11-13T08:36:21.559Z,1028.24
2016-11-13T08:37:32.508Z,1028.25
2016-11-13T08:38:41.925Z,1028.24
2016-11-13T08:39:51.647Z,1028.25
2016-11-13T08:41:01.790Z,1028.2
2016-11-13T08:42:11.849Z,1028.2
2016-11-13T08:43:21.569Z,1028.17
2016-11-13T08:44:31.599Z,1028.17
2016-11-13T08:45:41.332Z,1028.16
2016-11-13T08:46:50.425Z,1028.18
2016-11-13T08:48:00.455Z,1028.18
2016-11-13T08:49:10.458Z,1028.18
2016-11-13T08:50:20.784Z,1028.2
2016-11-13T08:51:31.244Z,1028.21
2016-11-13T08:52:41.489Z,1028.25
2016-11-13T08:53:51.604Z,1028.27
2016-11-13T08:55:01.660Z,1028.28
2016-11-13T08:56:11.189Z,1028.29
2016-11-13T08:57:21.815Z,1028.32
2016-11-13T08:58:32.183Z,1028.31
2016-11-13T08:59:42.537Z,1028.33
2016-11-13T09:00:52.725Z,1028.33
2016-11-13T09:02:02.772Z,1028.35
2016-11-13T09:03:12.161Z,1028.36
2016-11-13T09:04:21.386Z,1028.3
2016-11-13T09:05:31.567Z,1028.35
2016-11-13T09:06:41.897Z,1028.34
2016-11-13T09:07:51.830Z,1028.34
2016-11-13T09:09:01.647Z,1028.38
2016-11-13T09:10:11.689Z,1028.41
2016-11-13T09:11:21.770Z,1028.44
2016-11-13T09:12:31.703Z,1028.46
2016-11-13T09:13:41.769Z,1028.47
2016-11-13T09:14:51.944Z,1028.5
2016-11-13T09:16:01.372Z,1028.47
2016-11-13T09:17:11.387Z,1028.51
2016-11-13T09:18:21.582Z,1028.51
2016-11-13T09:19:31.929Z,1028.47
2016-11-13T09:20:42.009Z,1028.48
2016-11-13T09:21:52.159Z,1028.49
2016-11-13T09:23:01.862Z,1028.51
2016-11-13T09:24:11.339Z,1028.49
2016-11-13T09:25:22.026Z,1028.48
2016-11-13T09:26:31.809Z,1028.48
2016-11-13T09:27:41.842Z,1028.51
2016-11-13T09:28:52.164Z,1028.52
2016-11-13T09:30:02.044Z,1028.56
2016-11-13T09:31:11.743Z,1028.57
2016-11-13T09:32:21.790Z,1028.6
2016-11-13T09:33:31.904Z,1028.52
2016-11-13T09:34:42.009Z,1028.59
2016-11-13T09:35:52.419Z,1028.57
2016-11-13T09:37:02.760Z,1028.58
2016-11-13T09:38:12.547Z,1028.67
2016-11-13T09:39:22.622Z,1028.63
2016-11-13T09:40:33.238Z,1028.59
2016-11-13T09:41:43.584Z,1028.58
2016-11-13T09:42:52.679Z,1028.68
2016-11-13T09:44:02.999Z,1028.66
2016-11-13T09:45:12.727Z,1028.67
2016-11-13T09:46:23.041Z,1028.68
2016-11-13T09:47:32.428Z,1028.69
2016-11-13T09:48:42.159Z,1028.68
2016-11-13T09:49:52.048Z,1028.64
2016-11-13T09:51:02.136Z,1028.68
2016-11-13T09:52:12.119Z,1028.67
2016-11-13T09:53:22.450Z,1028.69
2016-11-13T09:54:32.321Z,1028.69
2016-11-13T09:55:42.664Z,1028.67
2016-11-13T09:56:53.014Z,1028.63
2016-11-13T09:58:03.062Z,1028.7
2016-11-13T09:59:12.776Z,1028.68
2016-11-13T10:00:22.486Z,1028.68
2016-11-13T10:01:32.853Z,1028.73
2016-11-13T10:02:42.869Z,1028.7
2016-11-13T10:03:52.588Z,1028.78
2016-11-13T10:05:02.721Z,1028.82
2016-11-13T10:06:12.446Z,1028.81
2016-11-13T10:07:22.198Z,1028.81
2016-11-13T10:08:32.100Z,1028.81
2016-11-13T10:09:42.598Z,1028.8
2016-11-13T10:10:52.622Z,1028.82
2016-11-13T10:12:02.399Z,1028.82
2016-11-13T10:13:12.527Z,1028.82
2016-11-13T10:14:22.871Z,1028.83
2016-11-13T10:15:32.944Z,1028.77
2016-11-13T10:16:43.284Z,1028.78
2016-11-13T10:17:53.069Z,1028.74
2016-11-13T10:19:02.777Z,1028.8
2016-11-13T10:20:12.993Z,1028.76
2016-11-13T10:21:23.069Z,1028.8
2016-11-13T10:22:33.127Z,1028.81
2016-11-13T10:23:43.178Z,1028.82
2016-11-13T10:24:52.968Z,1028.86
2016-11-13T10:26:02.707Z,1028.85
2016-11-13T10:27:13.046Z,1028.84
2016-11-13T10:28:23.384Z,1028.82
2016-11-13T10:29:33.402Z,1028.86
2016-11-13T10:30:43.187Z,1028.82
2016-11-13T10:31:52.893Z,1028.84
2016-11-13T10:33:02.346Z,1028.82
2016-11-13T10:34:12.695Z,1028.8
2016-11-13T10:35:22.150Z,1028.77
2016-11-13T10:36:32.300Z,1028.84
2016-11-13T10:37:42.320Z,1028.81
2016-11-13T10:38:52.681Z,1028.8
2016-11-13T10:40:03.017Z,1028.78
2016-11-13T10:41:12.737Z,1028.77
2016-11-13T10:42:22.474Z,1028.77
2016-11-13T10:43:33.026Z,1028.8
2016-11-13T10:44:43.114Z,1028.75
2016-11-13T10:45:53.133Z,1028.78
2016-11-13T10:47:03.294Z,1028.76
2016-11-13T10:48:13.340Z,1028.75
2016-11-13T10:49:23.748Z,1028.77
2016-11-13T10:50:33.594Z,1028.78
2016-11-13T10:51:44.080Z,1028.78
2016-11-13T10:52:54.381Z,1028.76
2016-11-13T10:54:04.629Z,1028.78
2016-11-13T10:55:14.509Z,1028.82
2016-11-13T10:56:24.862Z,1028.82
2016-11-13T10:57:34.636Z,1028.82
2016-11-13T10:58:44.739Z,1028.81
2016-11-13T10:59:55.189Z,1028.85
2016-11-13T11:01:05.315Z,1028.82
2016-11-13T11:02:15.667Z,1028.81
2016-11-13T11:03:25.084Z,1028.88
2016-11-13T11:04:34.857Z,1028.86
2016-11-13T11:05:44.974Z,1028.83
2016-11-13T11:06:55.494Z,1028.81
2016-11-13T11:08:05.258Z,1028.86
2016-11-13T11:09:15.638Z,1028.81
2016-11-13T11:10:25.753Z,1028.81
2016-11-13T11:11:35.839Z,1028.8
2016-11-13T11:12:45.861Z,1028.79
2016-11-13T11:13:55.594Z,1028.78
2016-11-13T11:15:05.652Z,1028.82
2016-11-13T11:16:15.699Z,1028.83
2016-11-13T11:17:25.737Z,1028.85
2016-11-13T11:18:35.458Z,1028.84
2016-11-13T11:19:45.956Z,1028.89
2016-11-13T11:20:56.317Z,1028.87
2016-11-13T11:22:06.701Z,1028.89
2016-11-13T11:23:16.960Z,1028.88
2016-11-13T11:24:27.479Z,1028.9
2016-11-13T11:25:37.804Z,1028.83
2016-11-13T11:26:47.527Z,1028.83
2016-11-13T11:27:58.079Z,1028.82
2016-11-13T11:29:08.426Z,1028.76
2016-11-13T11:30:18.197Z,1028.78
2016-11-13T11:31:28.250Z,1028.76
2016-11-13T11:32:38.384Z,1028.8
2016-11-13T11:33:48.778Z,1028.78
2016-11-13T11:34:58.542Z,1028.81
2016-11-13T11:36:08.618Z,1028.8
2016-11-13T11:37:18.345Z,1028.87
2016-11-13T11:38:28.699Z,1028.9
2016-11-13T11:39:38.726Z,1028.92
2016-11-13T11:40:48.760Z,1028.94
2016-11-13T11:41:58.906Z,1028.96
2016-11-13T11:43:09.058Z,1028.97
2016-11-13T11:44:19.105Z,1028.96
2016-11-13T11:45:29.138Z,1028.95
2016-11-13T11:46:39.605Z,1028.93
2016-11-13T11:47:50.030Z,1028.95
2016-11-13T11:49:00.569Z,1028.95
2016-11-13T11:50:10.922Z,1028.92
2016-11-13T11:51:20.980Z,1028.9
2016-11-13T11:52:30.758Z,1028.91
2016-11-13T11:53:40.563Z,1028.93
2016-11-13T11:54:50.691Z,1028.93
2016-11-13T12:13:59.019Z,1029.14
2016-11-13T12:14:13.996Z,1029.07
2016-11-13T12:15:24.267Z,1029.08
2016-11-13T12:16:34.646Z,1029.04
2016-11-13T12:17:44.484Z,1029.09
2016-11-13T12:18:54.978Z,1029.05
2016-11-13T12:20:04.727Z,1029.03
2016-11-13T12:21:15.017Z,1029.03
2016-11-13T12:22:25.451Z,1028.97
2016-11-13T12:23:35.915Z,1028.99
2016-11-13T12:24:45.727Z,1028.96
2016-11-13T12:25:55.836Z,1029
2016-11-13T12:27:06.221Z,1028.97
2016-11-13T12:28:16.603Z,1028.91
2016-11-13T12:29:26.655Z,1028.92
2016-11-13T12:30:37.015Z,1028.96
2016-11-13T12:31:47.369Z,1028.99
2016-11-13T12:32:57.356Z,1028.99
2016-11-13T12:34:07.397Z,1029
2016-11-13T12:35:17.128Z,1028.98
2016-11-13T12:36:27.643Z,1028.97
2016-11-13T12:37:38.138Z,1028.98
2016-11-13T12:38:48.464Z,1028.99
2016-11-13T12:39:58.797Z,1029.02
2016-11-13T12:41:09.146Z,1029
2016-11-13T12:42:19.648Z,1029
2016-11-13T12:43:29.568Z,1028.98
2016-11-13T12:44:40.242Z,1028.95
2016-11-13T12:45:50.447Z,1029.03
2016-11-13T12:47:00.274Z,1029.01
2016-11-13T12:48:10.305Z,1029
2016-11-13T12:49:20.351Z,1028.96
2016-11-13T12:50:30.098Z,1028.98
2016-11-13T12:51:39.808Z,1028.99
2016-11-13T12:52:49.876Z,1028.98
2016-11-13T12:53:59.318Z,1028.99
2016-11-13T12:55:09.043Z,1028.97
2016-11-13T12:56:18.492Z,1029.03
2016-11-13T12:57:28.535Z,1028.98
2016-11-13T12:58:38.879Z,1028.99
2016-11-13T12:59:49.268Z,1028.98
2016-11-13T13:00:59.631Z,1028.98
2016-11-13T13:02:09.959Z,1028.95
2016-11-13T13:03:20.853Z,1028.93
2016-11-13T13:04:30.879Z,1028.94
2016-11-13T13:05:40.989Z,1028.95
2016-11-13T13:06:51.018Z,1029.03
2016-11-13T13:08:01.199Z,1028.99
2016-11-13T13:09:11.306Z,1029.01
2016-11-13T13:10:21.657Z,1029.01
2016-11-13T13:11:32.156Z,1029.04
2016-11-13T13:12:42.455Z,1029.05
2016-11-13T13:13:52.488Z,1029.04
2016-11-13T13:15:02.525Z,1029.09
2016-11-13T13:16:12.776Z,1029.06
2016-11-13T13:17:23.305Z,1029.06
2016-11-13T13:18:33.418Z,1029.03
2016-11-13T13:19:43.769Z,1029.07
2016-11-13T13:20:53.494Z,1029.04
2016-11-13T13:22:03.572Z,1029.06
2016-11-13T13:23:13.678Z,1029.04
2016-11-13T13:24:23.733Z,1029.03
2016-11-13T13:25:33.480Z,1029.05
2016-11-13T13:26:43.212Z,1029.1
2016-11-13T13:27:53.230Z,1029.05
2016-11-13T13:29:03.258Z,1029.04
2016-11-13T13:30:13.754Z,1029.06
2016-11-13T13:31:24.095Z,1029.07
2016-11-13T13:32:33.849Z,1029.06
2016-11-13T13:33:43.877Z,1029.05
2016-11-13T13:34:53.637Z,1029.03
2016-11-13T13:36:04.003Z,1029.03
2016-11-13T13:37:14.037Z,1029.03
2016-11-13T13:38:24.042Z,1029.02
2016-11-13T13:39:33.741Z,1029.06
2016-11-13T13:40:44.188Z,1029.05
2016-11-13T13:41:54.569Z,1029.01
2016-11-13T13:43:04.927Z,1029.02
2016-11-13T13:44:15.286Z,1029
2016-11-13T13:45:25.334Z,1029.05
2016-11-13T13:46:35.385Z,1029.1
2016-11-13T13:47:45.752Z,1029.15
2016-11-13T13:48:56.419Z,1029.15
2016-11-13T13:50:06.456Z,1029.12
2016-11-13T13:51:16.463Z,1029.14
2016-11-13T13:52:26.586Z,1029.2
2016-11-13T13:53:36.339Z,1029.16
2016-11-13T13:54:46.470Z,1029.21
2016-11-13T13:55:56.817Z,1029.21
2016-11-13T13:57:07.192Z,1029.25
2016-11-13T13:58:17.548Z,1029.18
2016-11-13T13:59:27.268Z,1029.22
2016-11-13T14:00:37.279Z,1029.22
2016-11-13T14:01:47.776Z,1029.25
2016-11-13T14:02:57.912Z,1029.25
2016-11-13T14:04:08.018Z,1029.3
2016-11-13T14:05:17.736Z,1029.29
2016-11-13T14:06:27.787Z,1029.33
2016-11-13T14:07:38.253Z,1029.34
2016-11-13T14:08:48.274Z,1029.32
2016-11-13T14:09:58.338Z,1029.32
2016-11-13T14:11:08.403Z,1029.38
2016-11-13T14:12:18.808Z,1029.38
2016-11-13T14:13:29.170Z,1029.42
2016-11-13T14:14:39.621Z,1029.41
2016-11-13T14:15:50.083Z,1029.39
2016-11-13T14:16:59.900Z,1029.36
2016-11-13T14:18:10.030Z,1029.35
2016-11-13T14:19:20.367Z,1029.36
2016-11-13T14:20:30.425Z,1029.34
2016-11-13T14:21:40.245Z,1029.37
2016-11-13T14:22:50.380Z,1029.35
2016-11-13T14:24:00.566Z,1029.37
2016-11-13T14:25:11.003Z,1029.37
2016-11-13T14:26:21.062Z,1029.34